Impacts TAF Board
For situational awareness. Not to be used for flight planning purposes.
IDs:

KMSY - New Orleans/Armstron, LA, US

Issued at 0537 UTC 26 Jan 2020
Updated at 0904 UTC 26 Jan 2020
Potential Impact None Slight Moderate High
Time<<26/22Z 26/23Z 27/00Z 27/01Z 27/02Z 27/03Z 27/04Z 27/05Z 27/06Z 27/07Z 27/08Z 27/09Z 27/10Z>>
Type PRVL PRVL PRVL PRVL PRVL PRVL PRVL PRVL PRVL PRVL PRVL PRVL PRVL
VIS 6 6 6 6 6 6 6 6 6 6 6 6 6
CIG 8 8 3 3 3 3 3 3 3 3 3 3 3
Cover OVC OVC OVC OVC OVC OVC OVC OVC OVC OVC OVC OVC OVC
FltCat IFR IFR LIFR LIFR LIFR LIFR LIFR LIFR LIFR LIFR LIFR LIFR LIFR
WX SHRA BR SHRA BR BR BR BR BR BR BR BR BR BR BR BR
WDir 120 120 120 120 120 120 120 120 120 120 120 120 120
WSpd 9 9 6 6 6 6 6 6 6 6 6 6 6
WGst -- -- -- -- -- -- -- -- -- -- -- -- --
Raw TAF
KMSY 260537Z 2606/2712 15003KT P6SM OVC100
  FM260900 00000KT 6SM -SHRA OVC100
  FM261300 13010G19KT 6SM -SHRA BR OVC025
  FM262100 13010G21KT 6SM SHRA BR OVC015
  FM262200 12009KT 6SM SHRA BR OVC008
  FM270000 12006KT 6SM BR OVC003


METAR Board
Radar Display
Forecast Discussion
For situational awareness. Not to be used for flight planning purposes.